Time;durP1;ratioP1;P1;durP2;ratioP2;P2;SDS_P1;SDS_P2;PMS_P1;PMS_P2;Temp;Humidity;BMP_temperature;BMP_pressure;BME280_temperature;BME280_humidity;BME280_pressure;Samples;Min_cycle;Max_cycle;Signal;HPM_P1;HPM_P2
2023/12/31 05:02:49;;;;;;;1999.90;999.90;;;;;;;;;;5003651;23;20308;-69
2023/12/31 05:05:34;;;;;;;1999.90;999.90;;;;;;;;;;4994304;28;20327;-69
2023/12/31 05:08:19;;;;;;;1999.90;999.90;;;;;;;;;;4994248;28;20207;-69
2023/12/31 05:11:04;;;;;;;1999.90;999.90;;;;;;;;;;4993929;28;20223;-69
2023/12/31 05:13:49;;;;;;;1999.90;999.90;;;;;;;;;;4993934;28;20219;-68
2023/12/31 05:16:34;;;;;;;1999.90;999.90;;;;;;;;;;4994013;28;20226;-69
2023/12/31 05:19:20;;;;;;;1999.90;999.90;;;;;;;;;;4993864;28;20620;-69
2023/12/31 05:22:05;;;;;;;1999.90;999.90;;;;;;;;;;4993047;28;20350;-69
2023/12/31 05:24:50;;;;;;;1999.90;999.90;;;;;;;;;;4993595;28;20695;-68
2023/12/31 05:27:35;;;;;;;1999.90;999.90;;;;;;;;;;4993589;28;20230;-68
2023/12/31 05:30:20;;;;;;;1999.90;999.90;;;;;;;;;;4993702;28;20208;-69
2023/12/31 05:33:05;;;;;;;1999.90;999.90;;;;;;;;;;4993447;28;20203;-69
2023/12/31 05:35:51;;;;;;;1999.90;999.90;;;;;;;;;;4993700;28;20215;-69
2023/12/31 05:38:36;;;;;;;1999.90;999.90;;;;;;;;;;4993633;28;20679;-69
2023/12/31 05:41:21;;;;;;;1999.90;999.90;;;;;;;;;;4993068;28;20235;-69
2023/12/31 05:44:06;;;;;;;1999.90;999.90;;;;;;;;;;4993368;28;20227;-69
2023/12/31 05:46:51;;;;;;;1999.90;999.90;;;;;;;;;;4993448;28;20207;-69
2023/12/31 05:49:36;;;;;;;1999.90;999.90;;;;;;;;;;4993503;28;20207;-69
2023/12/31 05:52:22;;;;;;;1999.90;999.90;;;;;;;;;;4993449;28;20285;-69
2023/12/31 05:55:07;;;;;;;1999.90;999.90;;;;;;;;;;4994054;28;20210;-68
2023/12/31 05:57:52;;;;;;;1999.90;999.90;;;;;;;;;;4994273;28;20216;-69
2023/12/31 06:00:37;;;;;;;1999.90;999.90;;;;;;;;;;4993371;28;20449;-69
2023/12/31 06:03:22;;;;;;;1999.90;999.90;;;;;;;;;;4993313;28;20211;-68
2023/12/31 06:06:07;;;;;;;1999.90;999.90;;;;;;;;;;4993224;28;20603;-68
2023/12/31 06:08:54;;;;;;;1999.90;999.90;;;;;;;;;;4992842;28;20692;-68
2023/12/31 06:11:39;;;;;;;1999.90;999.90;;;;;;;;;;4992923;28;21092;-69
2023/12/31 06:14:24;;;;;;;1999.90;999.90;;;;;;;;;;4993002;28;20592;-69
2023/12/31 06:17:09;;;;;;;1999.90;999.90;;;;;;;;;;4993043;28;20214;-69
2023/12/31 06:19:54;;;;;;;1999.90;999.90;;;;;;;;;;4992807;28;20707;-69
2023/12/31 06:22:38;;;;;;;1999.90;999.90;;;;;;;;;;4992589;28;20692;-69
2023/12/31 06:25:25;;;;;;;1999.90;999.90;;;;;;;;;;4992919;28;20207;-68
2023/12/31 06:28:10;;;;;;;1999.90;999.90;;;;;;;;;;4991697;28;20395;-69
2023/12/31 06:30:54;;;;;;;1999.90;999.90;;;;;;;;;;4992728;28;20300;-69
2023/12/31 06:33:39;;;;;;;1999.90;999.90;;;;;;;;;;4992414;28;20222;-69
2023/12/31 06:36:24;;;;;;;1999.90;999.90;;;;;;;;;;4992785;28;20708;-68
2023/12/31 06:39:09;;;;;;;1999.90;999.90;;;;;;;;;;4992603;28;20687;-68
2023/12/31 06:41:56;;;;;;;1999.90;999.90;;;;;;;;;;4992304;28;20238;-69
2023/12/31 06:44:41;;;;;;;1999.90;999.90;;;;;;;;;;4992377;28;20584;-69
2023/12/31 06:47:26;;;;;;;1999.90;999.90;;;;;;;;;;4992621;28;20579;-68
2023/12/31 06:50:11;;;;;;;1999.90;999.90;;;;;;;;;;4992655;28;20199;-69
2023/12/31 06:52:56;;;;;;;1999.90;999.90;;;;;;;;;;4992287;28;20234;-68
2023/12/31 06:55:41;;;;;;;1999.90;999.90;;;;;;;;;;4992554;28;20676;-69
2023/12/31 06:58:27;;;;;;;1999.90;999.90;;;;;;;;;;4992401;28;20222;-69
2023/12/31 07:01:13;;;;;;;1999.90;999.90;;;;;;;;;;4992214;28;20615;-68
2023/12/31 07:03:58;;;;;;;1999.90;999.90;;;;;;;;;;4992270;28;20206;-69
2023/12/31 07:06:42;;;;;;;1999.90;999.90;;;;;;;;;;4992230;28;20199;-68
2023/12/31 07:09:28;;;;;;;1999.90;999.90;;;;;;;;;;4992150;28;20206;-69
2023/12/31 07:12:13;;;;;;;1999.90;999.90;;;;;;;;;;4992297;28;20227;-68
2023/12/31 07:14:59;;;;;;;1999.90;999.90;;;;;;;;;;4992151;28;20331;-68
2023/12/31 07:17:44;;;;;;;1999.90;999.90;;;;;;;;;;4992112;28;20213;-68
2023/12/31 07:20:30;;;;;;;1999.90;999.90;;;;;;;;;;4992097;28;20270;-69
2023/12/31 07:23:15;;;;;;;1999.90;999.90;;;;;;;;;;4992215;28;20572;-69
2023/12/31 07:25:59;;;;;;;1999.90;999.90;;;;;;;;;;4992309;28;20203;-69
2023/12/31 07:28:45;;;;;;;1999.90;999.90;;;;;;;;;;4991663;28;20537;-69
2023/12/31 07:31:34;;;;;;;1999.90;999.90;;;;;;;;;;4991839;28;20223;-69
2023/12/31 07:34:19;;;;;;;1999.90;999.90;;;;;;;;;;4992049;28;20301;-68
2023/12/31 07:37:04;;;;;;;1999.90;999.90;;;;;;;;;;4992143;28;20195;-69
2023/12/31 07:39:49;;;;;;;1999.90;999.90;;;;;;;;;;4991855;28;20199;-69
2023/12/31 07:42:35;;;;;;;1999.90;999.90;;;;;;;;;;4992105;28;20651;-69
2023/12/31 07:45:19;;;;;;;1999.90;999.90;;;;;;;;;;4995048;28;20207;-69
2023/12/31 07:48:09;;;;;;;1999.90;999.90;;;;;;;;;;4995655;28;20214;-69
2023/12/31 07:50:54;;;;;;;1999.90;999.90;;;;;;;;;;4995903;28;20235;-69
2023/12/31 07:53:38;;;;;;;1999.90;999.90;;;;;;;;;;4995344;28;20230;-69
2023/12/31 07:56:23;;;;;;;1999.90;999.90;;;;;;;;;;4994213;28;20396;-69
2023/12/31 07:59:08;;;;;;;1999.90;999.90;;;;;;;;;;4995230;28;20207;-68
2023/12/31 08:01:54;;;;;;;1999.90;999.90;;;;;;;;;;4994823;28;20436;-69
2023/12/31 08:04:40;;;;;;;1999.90;999.90;;;;;;;;;;4995157;28;20211;-69
2023/12/31 08:07:25;;;;;;;1999.90;999.90;;;;;;;;;;4994989;28;20207;-69
2023/12/31 08:10:11;;;;;;;1999.90;999.90;;;;;;;;;;4994993;28;20204;-67
2023/12/31 08:12:56;;;;;;;1999.90;999.90;;;;;;;;;;4994938;28;20207;-69
2023/12/31 08:15:41;;;;;;;1999.90;999.90;;;;;;;;;;4995221;28;20199;-69
2023/12/31 08:18:26;;;;;;;1999.90;999.90;;;;;;;;;;4994765;28;20215;-69
2023/12/31 08:21:12;;;;;;;1999.90;999.90;;;;;;;;;;4994846;28;20305;-69
2023/12/31 08:23:57;;;;;;;1999.90;999.90;;;;;;;;;;4994849;28;20695;-69
2023/12/31 08:26:42;;;;;;;1999.90;999.90;;;;;;;;;;4994929;28;20266;-69
2023/12/31 08:29:27;;;;;;;1999.90;999.90;;;;;;;;;;4994978;28;20203;-69
2023/12/31 08:32:12;;;;;;;1999.90;999.90;;;;;;;;;;4994777;28;20271;-68
2023/12/31 08:34:56;;;;;;;1999.90;999.90;;;;;;;;;;4994419;28;20584;-69
2023/12/31 08:37:43;;;;;;;1999.90;999.90;;;;;;;;;;4994777;28;20211;-69
2023/12/31 08:40:28;;;;;;;1999.90;999.90;;;;;;;;;;4994554;28;20214;-69
2023/12/31 08:43:12;;;;;;;1999.90;999.90;;;;;;;;;;4994385;28;20283;-69
2023/12/31 08:45:57;;;;;;;1999.90;999.90;;;;;;;;;;4994413;28;20730;-69
2023/12/31 08:48:42;;;;;;;1999.90;999.90;;;;;;;;;;4994622;28;20215;-69
2023/12/31 08:51:27;;;;;;;1999.90;999.90;;;;;;;;;;4994357;28;20727;-68
2023/12/31 08:54:14;;;;;;;1999.90;999.90;;;;;;;;;;4994377;28;20214;-69
2023/12/31 08:56:59;;;;;;;1999.90;999.90;;;;;;;;;;4991855;28;20421;-69
2023/12/31 08:59:44;;;;;;;1999.90;999.90;;;;;;;;;;4994374;28;20742;-69
2023/12/31 09:02:28;;;;;;;1999.90;999.90;;;;;;;;;;4993920;28;20823;-69
2023/12/31 09:05:13;;;;;;;1999.90;999.90;;;;;;;;;;4994008;28;20242;-68
2023/12/31 09:07:58;;;;;;;1999.90;999.90;;;;;;;;;;4994248;28;20203;-69
2023/12/31 09:10:46;;;;;;;1999.90;999.90;;;;;;;;;;4994043;28;20234;-69
2023/12/31 09:13:31;;;;;;;1999.90;999.90;;;;;;;;;;4993633;28;20218;-68
2023/12/31 09:16:16;;;;;;;1999.90;999.90;;;;;;;;;;4993820;28;20203;-69
2023/12/31 09:19:01;;;;;;;1999.90;999.90;;;;;;;;;;4993955;28;20227;-69
2023/12/31 09:21:45;;;;;;;1999.90;999.90;;;;;;;;;;4992971;28;20571;-69
2023/12/31 09:24:31;;;;;;;1999.90;999.90;;;;;;;;;;4993720;28;20672;-69
2023/12/31 09:27:17;;;;;;;1999.90;999.90;;;;;;;;;;4993834;28;20611;-68
2023/12/31 09:30:02;;;;;;;1999.90;999.90;;;;;;;;;;4993797;28;20276;-69
2023/12/31 09:32:47;;;;;;;1999.90;999.90;;;;;;;;;;4993778;28;20226;-69
2023/12/31 09:35:32;;;;;;;1999.90;999.90;;;;;;;;;;4993558;28;20588;-69
2023/12/31 09:38:17;;;;;;;1999.90;999.90;;;;;;;;;;4993638;28;20221;-69
2023/12/31 09:41:05;;;;;;;1999.90;999.90;;;;;;;;;;4993141;28;20247;-68
2023/12/31 09:43:52;;;;;;;1999.90;999.90;;;;;;;;;;4993320;28;20207;-69
2023/12/31 09:46:39;;;;;;;1999.90;999.90;;;;;;;;;;4993449;28;20211;-69
2023/12/31 09:49:24;;;;;;;1999.90;999.90;;;;;;;;;;4993342;28;20275;-68
2023/12/31 09:52:09;;;;;;;1999.90;999.90;;;;;;;;;;4993201;28;20223;-69
2023/12/31 09:54:55;;;;;;;1999.90;999.90;;;;;;;;;;4993124;28;20211;-68
2023/12/31 09:57:43;;;;;;;1999.90;999.90;;;;;;;;;;4993083;28;20218;-69
2023/12/31 10:00:29;;;;;;;1999.90;999.90;;;;;;;;;;4993070;28;20207;-69
2023/12/31 10:03:14;;;;;;;1999.90;999.90;;;;;;;;;;4992921;28;20255;-69
2023/12/31 10:06:00;;;;;;;1999.90;999.90;;;;;;;;;;4993304;28;20274;-69
2023/12/31 10:08:45;;;;;;;1999.90;999.90;;;;;;;;;;4992747;28;20211;-69
2023/12/31 10:11:31;;;;;;;1999.90;999.90;;;;;;;;;;4993001;28;20726;-69
2023/12/31 10:14:16;;;;;;;1999.90;999.90;;;;;;;;;;4993179;28;20203;-69
2023/12/31 10:17:06;;;;;;;1999.90;999.90;;;;;;;;;;4992766;28;20206;-69
2023/12/31 10:19:52;;;;;;;1999.90;999.90;;;;;;;;;;4992596;28;20207;-69
2023/12/31 10:22:37;;;;;;;1999.90;999.90;;;;;;;;;;4992478;28;20250;-69
2023/12/31 10:25:24;;;;;;;1999.90;999.90;;;;;;;;;;4992235;28;20410;-69
2023/12/31 10:28:09;;;;;;;1999.90;999.90;;;;;;;;;;4992745;28;20211;-69
2023/12/31 10:30:54;;;;;;;1999.90;999.90;;;;;;;;;;4992375;28;20226;-68
2023/12/31 10:33:41;;;;;;;1999.90;999.90;;;;;;;;;;4992327;28;20579;-69
2023/12/31 10:36:26;;;;;;;1999.90;999.90;;;;;;;;;;4992719;28;20335;-68
2023/12/31 10:39:11;;;;;;;1999.90;999.90;;;;;;;;;;4992733;28;20214;-68
2023/12/31 10:41:57;;;;;;;1999.90;999.90;;;;;;;;;;4992383;28;20223;-69
2023/12/31 10:44:42;;;;;;;1999.90;999.90;;;;;;;;;;4992451;28;20278;-69
2023/12/31 10:47:30;;;;;;;1999.90;999.90;;;;;;;;;;4992215;28;20203;-69
2023/12/31 10:50:18;;;;;;;1999.90;999.90;;;;;;;;;;4992527;28;20204;-69
2023/12/31 10:53:04;;;;;;;1999.90;999.90;;;;;;;;;;4991411;28;20501;-68
2023/12/31 10:55:49;;;;;;;1999.90;999.90;;;;;;;;;;4992513;28;20211;-69
2023/12/31 10:58:34;;;;;;;1999.90;999.90;;;;;;;;;;4992202;28;20211;-69
2023/12/31 11:01:19;;;;;;;1999.90;999.90;;;;;;;;;;4992268;28;20254;-68
2023/12/31 11:04:05;;;;;;;1999.90;999.90;;;;;;;;;;4992150;28;20214;-69
2023/12/31 11:06:51;;;;;;;1999.90;999.90;;;;;;;;;;4992410;28;20784;-68
2023/12/31 11:09:36;;;;;;;1999.90;999.90;;;;;;;;;;4992318;28;20195;-69
2023/12/31 11:12:21;;;;;;;1999.90;999.90;;;;;;;;;;4992249;28;20271;-68
2023/12/31 11:15:07;;;;;;;1999.90;999.90;;;;;;;;;;4992060;28;20207;-69
2023/12/31 11:18:02;;;;;;;1999.90;999.90;;;;;;;;;;4992040;28;20203;-68
2023/12/31 11:21:04;;;;;;;1999.90;999.90;;;;;;;;;;4994432;28;20731;-68
2023/12/31 11:23:56;;;;;;;1999.90;999.90;;;;;;;;;;4995845;28;20715;-69
2023/12/31 11:26:41;;;;;;;1999.90;999.90;;;;;;;;;;4996114;28;20771;-69
2023/12/31 11:29:27;;;;;;;1999.90;999.90;;;;;;;;;;4995977;28;20222;-69
2023/12/31 11:32:15;;;;;;;1999.90;999.90;;;;;;;;;;4995668;28;20221;-68
2023/12/31 11:35:04;;;;;;;1999.90;999.90;;;;;;;;;;4995703;28;20206;-68
2023/12/31 11:37:49;;;;;;;1999.90;999.90;;;;;;;;;;4995861;28;20711;-69
2023/12/31 11:40:37;;;;;;;1999.90;999.90;;;;;;;;;;4995328;28;20310;-69
2023/12/31 11:43:23;;;;;;;1999.90;999.90;;;;;;;;;;4995187;28;20740;-67
2023/12/31 11:46:10;;;;;;;1999.90;999.90;;;;;;;;;;4995642;28;20224;-69
2023/12/31 11:48:57;;;;;;;1999.90;999.90;;;;;;;;;;4995798;28;20210;-68
2023/12/31 11:51:52;;;;;;;1999.90;999.90;;;;;;;;;;4995218;28;20219;-69
2023/12/31 11:54:38;;;;;;;1999.90;999.90;;;;;;;;;;4993665;28;20457;-68
2023/12/31 11:57:25;;;;;;;1999.90;999.90;;;;;;;;;;4995445;28;20236;-69
2023/12/31 12:00:11;;;;;;;1999.90;999.90;;;;;;;;;;4995420;28;20715;-69
2023/12/31 12:02:56;;;;;;;1999.90;999.90;;;;;;;;;;4994836;28;20747;-68
2023/12/31 12:05:41;;;;;;;1999.90;999.90;;;;;;;;;;4994982;28;20294;-69
2023/12/31 12:08:26;;;;;;;1999.90;999.90;;;;;;;;;;4995320;28;20605;-69
2023/12/31 12:11:11;;;;;;;1999.90;999.90;;;;;;;;;;4994874;28;20223;-69
2023/12/31 12:13:57;;;;;;;1999.90;999.90;;;;;;;;;;4994905;28;20211;-69
2023/12/31 12:16:42;;;;;;;1999.90;999.90;;;;;;;;;;4994836;28;20623;-68
2023/12/31 12:19:27;;;;;;;1999.90;999.90;;;;;;;;;;4994347;28;20407;-68
2023/12/31 12:22:14;;;;;;;1999.90;999.90;;;;;;;;;;4994706;28;20226;-69
2023/12/31 12:24:59;;;;;;;1999.90;999.90;;;;;;;;;;4994767;28;20199;-69
2023/12/31 12:27:43;;;;;;;1999.90;999.90;;;;;;;;;;4994798;28;20198;-68
2023/12/31 12:30:30;;;;;;;1999.90;999.90;;;;;;;;;;4994358;28;20206;-69
2023/12/31 12:33:16;;;;;;;1999.90;999.90;;;;;;;;;;4994873;28;20279;-69
2023/12/31 12:36:01;;;;;;;1999.90;999.90;;;;;;;;;;4994823;28;20203;-69
2023/12/31 12:38:48;;;;;;;1999.90;999.90;;;;;;;;;;4994463;28;20207;-70
2023/12/31 12:41:33;;;;;;;1999.90;999.90;;;;;;;;;;4994908;28;20226;-69
2023/12/31 12:44:19;;;;;;;1999.90;999.90;;;;;;;;;;4994421;28;20684;-69
2023/12/31 12:47:06;;;;;;;1999.90;999.90;;;;;;;;;;4994469;28;20215;-69
2023/12/31 12:49:51;;;;;;;1999.90;999.90;;;;;;;;;;4994709;28;20334;-69
2023/12/31 12:52:36;;;;;;;1999.90;999.90;;;;;;;;;;4994355;28;20231;-69
2023/12/31 12:55:20;;;;;;;1999.90;999.90;;;;;;;;;;4994330;28;20211;-68
2023/12/31 12:58:06;;;;;;;1999.90;999.90;;;;;;;;;;4994152;28;20207;-69
2023/12/31 13:00:50;;;;;;;1999.90;999.90;;;;;;;;;;4995638;28;20310;-69
2023/12/31 13:03:37;;;;;;;1999.90;999.90;;;;;;;;;;4995453;28;20223;-69
2023/12/31 13:06:22;;;;;;;1999.90;999.90;;;;;;;;;;4994216;28;20207;-69
2023/12/31 13:09:08;;;;;;;1999.90;999.90;;;;;;;;;;4994151;28;20290;-69
2023/12/31 13:11:52;;;;;;;1999.90;999.90;;;;;;;;;;4993968;28;20271;-68
2023/12/31 13:14:37;;;;;;;1999.90;999.90;;;;;;;;;;4993817;28;20608;-69
2023/12/31 13:17:23;;;;;;;1999.90;999.90;;;;;;;;;;4994014;28;20589;-69
2023/12/31 13:20:10;;;;;;;1999.90;999.90;;;;;;;;;;4993958;28;20802;-69
2023/12/31 13:22:55;;;;;;;1999.90;999.90;;;;;;;;;;4993507;28;20247;-68
2023/12/31 13:25:40;;;;;;;1999.90;999.90;;;;;;;;;;4993855;28;20688;-68
2023/12/31 13:28:25;;;;;;;1999.90;999.90;;;;;;;;;;4993768;28;20202;-69
2023/12/31 13:31:10;;;;;;;1999.90;999.90;;;;;;;;;;4993601;28;20584;-69
2023/12/31 13:33:55;;;;;;;1999.90;999.90;;;;;;;;;;4993467;28;20207;-69
2023/12/31 13:36:42;;;;;;;1999.90;999.90;;;;;;;;;;4993744;28;20743;-69
2023/12/31 13:39:26;;;;;;;1999.90;999.90;;;;;;;;;;4993546;28;20274;-69
2023/12/31 13:42:11;;;;;;;1999.90;999.90;;;;;;;;;;4992445;28;20227;-69
2023/12/31 13:44:56;;;;;;;1999.90;999.90;;;;;;;;;;4992991;28;20297;-69
2023/12/31 13:47:41;;;;;;;1999.90;999.90;;;;;;;;;;4992835;28;20407;-69
2023/12/31 13:50:26;;;;;;;1999.90;999.90;;;;;;;;;;4993289;28;20206;-69
2023/12/31 13:53:13;;;;;;;1999.90;999.90;;;;;;;;;;4993110;28;20203;-68
2023/12/31 13:55:58;;;;;;;1999.90;999.90;;;;;;;;;;4992911;28;20254;-69
2023/12/31 13:58:43;;;;;;;1999.90;999.90;;;;;;;;;;4993473;28;20581;-69
2023/12/31 14:01:27;;;;;;;1999.90;999.90;;;;;;;;;;4992699;28;20238;-68
2023/12/31 14:04:12;;;;;;;1999.90;999.90;;;;;;;;;;4992556;28;20326;-69
2023/12/31 14:06:59;;;;;;;1999.90;999.90;;;;;;;;;;4993276;28;20246;-69
2023/12/31 14:09:45;;;;;;;1999.90;999.90;;;;;;;;;;4993045;28;20207;-69
2023/12/31 14:12:30;;;;;;;1999.90;999.90;;;;;;;;;;4992872;28;20707;-69
2023/12/31 14:15:15;;;;;;;1999.90;999.90;;;;;;;;;;4992473;28;20211;-69
2023/12/31 14:18:00;;;;;;;1999.90;999.90;;;;;;;;;;4992734;28;20206;-68
2023/12/31 14:20:45;;;;;;;1999.90;999.90;;;;;;;;;;4992792;28;20231;-69
2023/12/31 14:23:30;;;;;;;1999.90;999.90;;;;;;;;;;4992445;28;20621;-69
2023/12/31 14:26:17;;;;;;;1999.90;999.90;;;;;;;;;;4992571;28;20223;-69
2023/12/31 14:29:02;;;;;;;1999.90;999.90;;;;;;;;;;4992835;28;20206;-69
2023/12/31 14:31:47;;;;;;;1999.90;999.90;;;;;;;;;;4992591;28;20247;-69
2023/12/31 14:34:31;;;;;;;1999.90;999.90;;;;;;;;;;4992261;28;20226;-69
2023/12/31 14:37:16;;;;;;;1999.90;999.90;;;;;;;;;;4992692;28;20207;-69
2023/12/31 14:40:02;;;;;;;1999.90;999.90;;;;;;;;;;4992410;28;20212;-69
2023/12/31 14:42:49;;;;;;;1999.90;999.90;;;;;;;;;;4992372;28;20223;-69
2023/12/31 14:45:34;;;;;;;1999.90;999.90;;;;;;;;;;4992548;28;20254;-69
2023/12/31 14:48:18;;;;;;;1999.90;999.90;;;;;;;;;;4992532;28;20214;-69
2023/12/31 14:51:03;;;;;;;1999.90;999.90;;;;;;;;;;4992404;28;20270;-68
2023/12/31 14:53:49;;;;;;;1999.90;999.90;;;;;;;;;;4993282;28;20199;-67
2023/12/31 14:56:37;;;;;;;1999.90;999.90;;;;;;;;;;4996532;28;20262;-69
2023/12/31 14:59:23;;;;;;;1999.90;999.90;;;;;;;;;;4996609;28;20495;-68
2023/12/31 15:02:11;;;;;;;1999.90;999.90;;;;;;;;;;4995991;28;20238;-68
2023/12/31 15:04:57;;;;;;;1999.90;999.90;;;;;;;;;;4996348;28;20293;-69
2023/12/31 15:07:41;;;;;;;1999.90;999.90;;;;;;;;;;4996411;28;20210;-69
2023/12/31 15:10:26;;;;;;;1999.90;999.90;;;;;;;;;;4996208;28;20215;-69
2023/12/31 15:13:11;;;;;;;1999.90;999.90;;;;;;;;;;4995656;28;20338;-69
2023/12/31 15:15:57;;;;;;;1999.90;999.90;;;;;;;;;;4996258;28;20316;-69
2023/12/31 15:18:42;;;;;;;1999.90;999.90;;;;;;;;;;4995269;28;20403;-68
2023/12/31 15:21:27;;;;;;;1999.90;999.90;;;;;;;;;;4995908;28;20306;-69
2023/12/31 15:24:13;;;;;;;1999.90;999.90;;;;;;;;;;4995621;28;20226;-68
2023/12/31 15:26:57;;;;;;;1999.90;999.90;;;;;;;;;;4995932;28;20207;-68
2023/12/31 15:29:42;;;;;;;1999.90;999.90;;;;;;;;;;4995939;28;20211;-69
2023/12/31 15:32:28;;;;;;;1999.90;999.90;;;;;;;;;;4995789;28;20297;-68
2023/12/31 15:35:13;;;;;;;1999.90;999.90;;;;;;;;;;4995756;28;20207;-69
2023/12/31 15:38:01;;;;;;;1999.90;999.90;;;;;;;;;;4995782;28;20211;-69
2023/12/31 15:40:47;;;;;;;1999.90;999.90;;;;;;;;;;4995832;28;20231;-69
2023/12/31 15:43:32;;;;;;;1999.90;999.90;;;;;;;;;;4995110;28;20346;-69
2023/12/31 15:46:17;;;;;;;1999.90;999.90;;;;;;;;;;4995447;28;20203;-69
2023/12/31 15:49:03;;;;;;;1999.90;999.90;;;;;;;;;;4995666;28;20295;-69
2023/12/31 15:51:48;;;;;;;1999.90;999.90;;;;;;;;;;4995413;28;20230;-69
2023/12/31 15:54:33;;;;;;;1999.90;999.90;;;;;;;;;;4995807;28;20255;-69
2023/12/31 15:57:18;;;;;;;1999.90;999.90;;;;;;;;;;4995140;28;20219;-68
2023/12/31 16:00:04;;;;;;;1999.90;999.90;;;;;;;;;;4995556;28;20227;-69
2023/12/31 16:02:50;;;;;;;1999.90;999.90;;;;;;;;;;4995756;28;20235;-69
2023/12/31 16:05:36;;;;;;;1999.90;999.90;;;;;;;;;;4995000;28;20211;-68
2023/12/31 16:08:21;;;;;;;1999.90;999.90;;;;;;;;;;4995461;28;20207;-68
2023/12/31 16:11:06;;;;;;;1999.90;999.90;;;;;;;;;;4996350;28;20631;-69
2023/12/31 16:13:51;;;;;;;1999.90;999.90;;;;;;;;;;4998188;28;20763;-69
2023/12/31 16:16:36;;;;;;;1999.90;999.90;;;;;;;;;;4998153;28;20210;-68
2023/12/31 16:19:21;;;;;;;1999.90;999.90;;;;;;;;;;4996975;28;20882;-69
2023/12/31 16:22:07;;;;;;;1999.90;999.90;;;;;;;;;;4996551;28;20709;-68
2023/12/31 16:24:52;;;;;;;1999.90;999.90;;;;;;;;;;4995789;28;20734;-71
2023/12/31 16:27:37;;;;;;;1999.90;999.90;;;;;;;;;;4996495;28;20673;-69
2023/12/31 16:30:22;;;;;;;1999.90;999.90;;;;;;;;;;4995246;28;20192;-69
2023/12/31 16:33:07;;;;;;;1999.90;999.90;;;;;;;;;;4994577;28;20208;-68
2023/12/31 16:35:52;;;;;;;1999.90;999.90;;;;;;;;;;4994829;28;20211;-69
2023/12/31 16:38:39;;;;;;;1999.90;999.90;;;;;;;;;;4994711;28;20746;-69
2023/12/31 16:41:24;;;;;;;1999.90;999.90;;;;;;;;;;4994600;28;20727;-69
2023/12/31 16:44:10;;;;;;;1999.90;999.90;;;;;;;;;;4994254;28;20251;-68
2023/12/31 16:46:55;;;;;;;1999.90;999.90;;;;;;;;;;4993179;28;20413;-69
2023/12/31 16:49:40;;;;;;;1999.90;999.90;;;;;;;;;;4994467;28;20286;-69
2023/12/31 16:52:25;;;;;;;1999.90;999.90;;;;;;;;;;4994391;28;20231;-69
2023/12/31 16:55:11;;;;;;;1999.90;999.90;;;;;;;;;;4994123;28;20199;-69
2023/12/31 16:57:56;;;;;;;1999.90;999.90;;;;;;;;;;4994423;28;20207;-69
2023/12/31 17:00:41;;;;;;;1999.90;999.90;;;;;;;;;;4994168;28;20597;-69
2023/12/31 17:03:26;;;;;;;1999.90;999.90;;;;;;;;;;4993692;28;20227;-69
2023/12/31 17:06:10;;;;;;;1999.90;999.90;;;;;;;;;;4994217;28;20215;-69
2023/12/31 17:08:55;;;;;;;1999.90;999.90;;;;;;;;;;4994127;28;20226;-68
2023/12/31 17:11:44;;;;;;;1999.90;999.90;;;;;;;;;;4994056;28;20739;-69
2023/12/31 17:14:29;;;;;;;1999.90;999.90;;;;;;;;;;4994021;28;20219;-69
2023/12/31 17:17:14;;;;;;;1999.90;999.90;;;;;;;;;;4993001;28;20210;-69
2023/12/31 17:19:59;;;;;;;1999.90;999.90;;;;;;;;;;4993908;28;20278;-69
2023/12/31 17:22:44;;;;;;;1999.90;999.90;;;;;;;;;;4993557;28;20227;-69
2023/12/31 17:25:29;;;;;;;1999.90;999.90;;;;;;;;;;4993839;28;20207;-69
2023/12/31 17:28:15;;;;;;;1999.90;999.90;;;;;;;;;;4993852;28;20580;-69
2023/12/31 17:31:00;;;;;;;1999.90;999.90;;;;;;;;;;4993624;28;20278;-69
2023/12/31 17:33:45;;;;;;;1999.90;999.90;;;;;;;;;;4993549;28;20342;-69
2023/12/31 17:36:29;;;;;;;1999.90;999.90;;;;;;;;;;4994101;28;20585;-69
2023/12/31 17:39:14;;;;;;;1999.90;999.90;;;;;;;;;;4993528;28;20207;-68
2023/12/31 17:41:59;;;;;;;1999.90;999.90;;;;;;;;;;4993652;28;20222;-69
2023/12/31 17:44:48;;;;;;;1999.90;999.90;;;;;;;;;;4993037;28;20370;-69
2023/12/31 17:47:33;;;;;;;1999.90;999.90;;;;;;;;;;4993277;28;20409;-69
2023/12/31 17:50:17;;;;;;;1999.90;999.90;;;;;;;;;;4993388;28;20206;-69
2023/12/31 17:53:02;;;;;;;1999.90;999.90;;;;;;;;;;4993052;28;20691;-69
2023/12/31 17:55:47;;;;;;;1999.90;999.90;;;;;;;;;;4993237;28;20219;-69
2023/12/31 17:58:32;;;;;;;1999.90;999.90;;;;;;;;;;4993255;28;20691;-69
2023/12/31 18:01:18;;;;;;;1999.90;999.90;;;;;;;;;;4992702;28;20235;-69
2023/12/31 18:04:05;;;;;;;1999.90;999.90;;;;;;;;;;4992775;28;20354;-69
2023/12/31 18:06:49;;;;;;;1999.90;999.90;;;;;;;;;;4993134;28;20211;-68
2023/12/31 18:09:34;;;;;;;1999.90;999.90;;;;;;;;;;4992842;28;20700;-69
2023/12/31 18:12:20;;;;;;;1999.90;999.90;;;;;;;;;;4992863;28;20246;-69
2023/12/31 18:15:06;;;;;;;1999.90;999.90;;;;;;;;;;4991406;28;20576;-68
2023/12/31 18:17:53;;;;;;;1999.90;999.90;;;;;;;;;;4992966;28;20586;-69
2023/12/31 18:20:38;;;;;;;1999.90;999.90;;;;;;;;;;4992779;28;20207;-69
2023/12/31 18:23:23;;;;;;;1999.90;999.90;;;;;;;;;;4992510;28;20223;-68
2023/12/31 18:26:08;;;;;;;1999.90;999.90;;;;;;;;;;4992817;28;20226;-69
2023/12/31 18:28:53;;;;;;;1999.90;999.90;;;;;;;;;;4992485;28;20672;-68
2023/12/31 18:31:38;;;;;;;1999.90;999.90;;;;;;;;;;4992604;28;20227;-68
2023/12/31 18:34:24;;;;;;;1999.90;999.90;;;;;;;;;;4992525;28;20242;-68
2023/12/31 18:37:09;;;;;;;1999.90;999.90;;;;;;;;;;4992668;28;20239;-69
2023/12/31 18:39:54;;;;;;;1999.90;999.90;;;;;;;;;;4992630;28;20215;-69
2023/12/31 18:42:39;;;;;;;1999.90;999.90;;;;;;;;;;4992535;28;20366;-69
2023/12/31 18:45:24;;;;;;;1999.90;999.90;;;;;;;;;;4992405;28;20951;-69
2023/12/31 18:48:09;;;;;;;1999.90;999.90;;;;;;;;;;4992529;28;20215;-69
2023/12/31 18:50:55;;;;;;;1999.90;999.90;;;;;;;;;;4992213;28;20227;-69
2023/12/31 18:53:40;;;;;;;1999.90;999.90;;;;;;;;;;4992034;28;20223;-68
2023/12/31 18:56:25;;;;;;;1999.90;999.90;;;;;;;;;;4992515;28;20210;-68
2023/12/31 18:59:10;;;;;;;1999.90;999.90;;;;;;;;;;4992449;28;20262;-69
2023/12/31 19:01:55;;;;;;;1999.90;999.90;;;;;;;;;;4992156;28;20710;-69
2023/12/31 19:04:42;;;;;;;1999.90;999.90;;;;;;;;;;4992019;28;20227;-68
2023/12/31 19:07:28;;;;;;;1999.90;999.90;;;;;;;;;;4992460;28;20207;-69
2023/12/31 19:10:13;;;;;;;1999.90;999.90;;;;;;;;;;4992402;28;20587;-69
2023/12/31 19:12:58;;;;;;;1999.90;999.90;;;;;;;;;;4992272;28;20695;-68
2023/12/31 19:15:43;;;;;;;1999.90;999.90;;;;;;;;;;4992355;28;20207;-69
2023/12/31 19:18:27;;;;;;;1999.90;999.90;;;;;;;;;;4992302;28;20255;-68
2023/12/31 19:21:12;;;;;;;1999.90;999.90;;;;;;;;;;4992162;28;20223;-69
2023/12/31 19:23:59;;;;;;;1999.90;999.90;;;;;;;;;;4992002;28;20288;-68
2023/12/31 19:26:47;;;;;;;1999.90;999.90;;;;;;;;;;4992191;28;20262;-69
2023/12/31 19:29:32;;;;;;;1999.90;999.90;;;;;;;;;;4991946;28;20192;-69
2023/12/31 19:32:17;;;;;;;1999.90;999.90;;;;;;;;;;4992110;28;20223;-69
2023/12/31 19:35:02;;;;;;;1999.90;999.90;;;;;;;;;;4991898;28;20584;-68
2023/12/31 19:37:47;;;;;;;1999.90;999.90;;;;;;;;;;4991807;28;20203;-69
2023/12/31 19:40:33;;;;;;;1999.90;999.90;;;;;;;;;;4992542;28;20295;-69
2023/12/31 19:43:18;;;;;;;1999.90;999.90;;;;;;;;;;4994155;28;20409;-69
2023/12/31 19:46:08;;;;;;;1999.90;999.90;;;;;;;;;;4995632;28;20222;-69
2023/12/31 19:48:53;;;;;;;1999.90;999.90;;;;;;;;;;4995707;28;20574;-68
2023/12/31 19:51:41;;;;;;;1999.90;999.90;;;;;;;;;;4995470;28;20826;-68
2023/12/31 19:54:27;;;;;;;1999.90;999.90;;;;;;;;;;4995283;28;20202;-69
2023/12/31 19:57:13;;;;;;;1999.90;999.90;;;;;;;;;;4995588;28;20262;-69
2023/12/31 19:59:58;;;;;;;1999.90;999.90;;;;;;;;;;4995470;28;20292;-68
2023/12/31 20:02:42;;;;;;;1999.90;999.90;;;;;;;;;;4995134;28;20242;-69
2023/12/31 20:05:27;;;;;;;1999.90;999.90;;;;;;;;;;4995099;28;20592;-69
2023/12/31 20:08:12;;;;;;;1999.90;999.90;;;;;;;;;;4995387;28;20343;-69
2023/12/31 20:10:57;;;;;;;1999.90;999.90;;;;;;;;;;4995023;28;20227;-68
2023/12/31 20:13:44;;;;;;;1999.90;999.90;;;;;;;;;;4995024;28;20311;-69
2023/12/31 20:16:28;;;;;;;1999.90;999.90;;;;;;;;;;4995196;28;20210;-68
2023/12/31 20:19:15;;;;;;;1999.90;999.90;;;;;;;;;;4995059;28;20290;-69
2023/12/31 20:22:00;;;;;;;1999.90;999.90;;;;;;;;;;4994728;28;20219;-69
2023/12/31 20:24:45;;;;;;;1999.90;999.90;;;;;;;;;;4994695;28;20591;-68